createdAt,value
2022-10-23T06:28:34.466Z,100726.84
2022-10-23T06:31:36.914Z,100750.91
2022-10-23T06:34:39.399Z,100716.78
2022-10-23T06:37:41.855Z,100767.34
2022-10-23T06:40:46.978Z,100734.09
2022-10-23T06:43:51.994Z,100713.38
2022-10-23T06:54:59.797Z,100748.44
2022-10-23T06:58:02.654Z,100738.78
2022-10-23T07:01:07.233Z,100757.91
2022-10-23T07:04:09.796Z,100739.00
2022-10-23T07:07:12.229Z,100732.34
2022-10-23T07:10:16.136Z,100731.19
2022-10-23T07:13:18.671Z,100747.28
2022-10-23T07:16:22.691Z,100746.41
2022-10-23T07:19:25.141Z,100766.72
2022-10-23T07:22:27.609Z,100761.75
2022-10-23T07:25:31.391Z,100770.22
2022-10-23T07:28:33.932Z,100768.75
2022-10-23T07:31:36.385Z,100759.66
2022-10-23T07:34:39.121Z,100764.50
2022-10-23T07:37:41.925Z,100760.06
2022-10-23T07:40:46.149Z,100754.75
2022-10-23T07:43:48.711Z,100767.38
2022-10-23T07:46:51.163Z,100764.69
2022-10-23T07:49:53.586Z,100763.56
2022-10-23T07:52:57.204Z,100761.66
2022-10-23T07:56:03.248Z,100759.81
2022-10-23T07:59:05.771Z,100754.94
2022-10-23T08:02:12.114Z,100749.47
2022-10-23T08:05:14.634Z,75878.38
2022-10-23T08:08:17.117Z,100750.03
2022-10-23T08:11:26.236Z,100750.28
2022-10-23T08:14:29.070Z,100752.91
2022-10-23T08:17:31.514Z,100751.00
2022-10-23T08:20:34.489Z,100753.34
2022-10-23T08:23:36.941Z,100751.50
2022-10-23T08:26:40.885Z,100751.91
2022-10-23T08:29:43.325Z,100751.91
2022-10-23T08:32:45.779Z,100737.50
2022-10-23T08:35:48.382Z,100737.50
2022-10-23T08:38:53.532Z,100752.22
2022-10-23T08:41:57.403Z,100718.63
2022-10-23T08:45:06.612Z,100710.75
2022-10-23T08:48:19.471Z,100717.97
2022-10-23T08:51:30.256Z,100712.63
2022-10-23T08:54:44.282Z,109683.56
2022-10-23T08:57:56.259Z,75602.66
2022-10-23T09:00:59.155Z,100730.59
2022-10-23T09:04:02.783Z,100727.84
2022-10-23T09:07:13.944Z,100734.25
2022-10-23T09:10:33.979Z,100734.25
2022-10-23T09:14:00.362Z,100733.38
2022-10-23T09:20:24.112Z,100727.09
2022-10-23T09:23:26.572Z,100717.94
2022-10-23T09:26:29.385Z,100712.25
2022-10-23T09:29:36.250Z,100706.53
2022-10-23T09:32:39.709Z,100706.44
2022-10-23T09:35:54.358Z,100732.19
2022-10-23T09:38:59.779Z,100732.19
2022-10-23T09:42:14.077Z,100726.19
2022-10-23T09:45:25.899Z,75339.34
2022-10-23T09:48:28.657Z,100723.53
2022-10-23T09:51:31.455Z,155521.94
2022-10-23T09:54:36.650Z,100733.22
2022-10-23T09:57:43.044Z,100733.22
2022-10-23T10:00:52.242Z,100728.72
2022-10-23T10:03:57.837Z,100731.78
2022-10-23T10:07:02.215Z,100733.13
2022-10-23T10:10:15.154Z,100736.69
2022-10-23T10:13:36.622Z,100740.97
2022-10-23T10:16:49.976Z,100733.06
2022-10-23T10:20:06.854Z,100724.25
2022-10-23T10:23:19.218Z,100719.00
2022-10-23T10:26:38.022Z,100708.00
2022-10-23T10:29:54.636Z,100702.50
2022-10-23T10:33:03.208Z,100698.53
2022-10-23T10:36:20.736Z,100697.88
2022-10-23T10:39:38.281Z,100689.25
2022-10-23T10:42:55.542Z,100687.84
2022-10-23T10:46:06.121Z,100687.75
2022-10-23T10:49:20.115Z,100685.66
2022-10-23T10:55:33.255Z,100659.34
2022-10-23T10:58:41.086Z,100650.03
2022-10-23T11:01:48.083Z,100649.88
2022-10-23T11:04:55.413Z,100613.91
2022-10-23T11:08:01.339Z,75062.31
2022-10-23T11:11:11.094Z,100596.09
2022-10-23T11:14:18.027Z,100591.09
2022-10-23T11:17:26.028Z,100586.53
2022-10-23T11:20:47.638Z,100590.72
2022-10-23T11:24:17.888Z,100588.16
2022-10-23T11:27:39.397Z,100580.28
2022-10-23T11:30:57.430Z,100588.22
2022-10-23T11:34:20.080Z,100571.88
2022-10-23T11:37:24.597Z,100557.66
2022-10-23T11:40:27.373Z,100564.56
2022-10-23T11:43:33.364Z,100564.25
2022-10-23T11:46:38.109Z,100560.88
2022-10-23T11:49:40.567Z,100563.56
2022-10-23T11:53:13.094Z,100558.00
2022-10-23T11:56:34.314Z,100544.56
2022-10-23T11:59:40.673Z,100551.84
2022-10-23T12:02:44.261Z,100547.69
2022-10-23T12:05:47.175Z,100533.84
2022-10-23T12:08:55.980Z,100536.22
2022-10-23T12:12:28.128Z,100530.63
2022-10-23T12:15:31.319Z,100520.84
2022-10-23T12:18:34.429Z,75031.81
2022-10-23T12:21:39.359Z,100527.41
2022-10-23T12:24:56.449Z,100527.41
2022-10-23T12:28:04.892Z,100516.63
2022-10-23T12:31:24.944Z,100507.50
2022-10-23T12:34:39.914Z,75048.22
2022-10-23T12:37:58.393Z,75252.03
2022-10-23T12:41:11.141Z,82841.25
2022-10-23T12:44:13.972Z,100486.03
2022-10-23T12:47:19.701Z,100490.66
2022-10-23T12:50:24.742Z,100486.19
2022-10-23T12:53:27.484Z,100479.06
2022-10-23T12:56:38.895Z,100467.09
2022-10-23T12:59:43.896Z,100466.50
2022-10-23T13:02:47.007Z,75040.19
2022-10-23T13:05:51.486Z,100451.47
2022-10-23T13:08:54.721Z,100455.78
2022-10-23T13:12:00.188Z,100462.28
2022-10-23T13:15:14.989Z,100445.56
2022-10-23T13:18:18.640Z,100447.44
2022-10-23T13:21:23.749Z,100431.41
2022-10-23T13:24:30.498Z,100436.78
2022-10-23T13:27:35.403Z,100427.50
2022-10-23T13:30:42.060Z,100437.44
2022-10-23T13:33:46.389Z,100432.75
2022-10-23T13:36:56.185Z,98004.44
2022-10-23T13:40:02.664Z,75059.97
2022-10-23T13:43:15.914Z,100430.56
2022-10-23T13:46:20.907Z,100432.75
2022-10-23T13:49:23.439Z,100429.84
2022-10-23T13:52:26.902Z,100428.81
2022-10-23T13:55:30.331Z,100428.81
2022-10-23T13:58:34.401Z,100418.13
2022-10-23T14:01:37.362Z,100419.81
2022-10-23T14:04:39.925Z,100414.44
2022-10-23T14:07:42.705Z,100397.44
2022-10-23T14:10:45.817Z,100400.94
2022-10-23T14:13:50.393Z,82612.47
2022-10-23T14:16:53.225Z,82656.94
2022-10-23T14:19:55.905Z,100394.38
2022-10-23T14:22:58.455Z,152467.09
2022-10-23T14:26:03.253Z,100384.28
2022-10-23T14:29:09.885Z,100382.28
2022-10-23T14:32:13.880Z,100379.31
2022-10-23T14:35:16.469Z,100372.22
2022-10-23T14:38:19.063Z,82577.72
2022-10-23T14:41:21.509Z,100362.59
2022-10-23T14:44:25.435Z,100366.34
2022-10-23T14:47:28.017Z,61854.41
2022-10-23T14:50:32.472Z,100355.56
2022-10-23T14:53:35.032Z,75225.09
2022-10-23T14:56:39.958Z,100336.56
2022-10-23T14:59:43.811Z,100346.09
2022-10-23T15:02:46.487Z,100338.88
2022-10-23T15:05:49.065Z,99954.28
2022-10-23T15:08:51.953Z,82399.25
2022-10-23T15:11:54.397Z,100335.44
2022-10-23T15:14:58.132Z,100333.41
2022-10-23T15:18:00.625Z,100326.56
2022-10-23T15:21:05.451Z,-19857.06
2022-10-23T15:24:08.181Z,100326.56
2022-10-23T15:27:10.612Z,100316.66
2022-10-23T15:30:15.549Z,100317.66
2022-10-23T15:33:19.906Z,100317.66
2022-10-23T15:36:22.522Z,100311.38
2022-10-23T15:39:27.152Z,100311.53
2022-10-23T15:42:29.571Z,67017.16
2022-10-23T15:45:33.978Z,100294.94
2022-10-23T15:48:36.426Z,82354.13
2022-10-23T15:51:39.836Z,61854.13
2022-10-23T15:54:42.262Z,61854.13
2022-10-23T15:57:44.674Z,61854.13
2022-10-23T16:00:48.413Z,61854.13
2022-10-23T16:03:51.152Z,61854.13
2022-10-23T16:06:53.557Z,61854.13
2022-10-23T16:09:56.131Z,61854.13
2022-10-23T16:12:58.526Z,61854.13
2022-10-23T16:16:05.264Z,61854.13
2022-10-23T16:19:07.742Z,61854.13
2022-10-23T16:22:10.258Z,61854.13
2022-10-23T16:25:12.862Z,61854.13
2022-10-23T16:28:15.422Z,61854.13
2022-10-23T16:31:23.917Z,61854.13
2022-10-23T16:34:26.483Z,61854.13
2022-10-23T16:37:28.919Z,61854.13
2022-10-23T16:40:31.378Z,61854.13
2022-10-23T16:43:33.843Z,61854.13
2022-10-23T16:46:38.917Z,61854.13
2022-10-23T16:49:41.363Z,61854.13
2022-10-23T16:52:43.892Z,61854.13
2022-10-23T16:55:46.474Z,61854.13
2022-10-23T16:58:49.174Z,61854.13
2022-10-23T17:01:53.534Z,61854.13
2022-10-23T17:04:56.065Z,61854.13
2022-10-23T17:07:58.483Z,61854.13
2022-10-23T17:11:09.278Z,61854.13
2022-10-23T17:14:14.398Z,61854.13
2022-10-23T17:17:18.151Z,61854.13
2022-10-23T17:20:20.802Z,61854.13
2022-10-23T17:23:23.253Z,61854.13
2022-10-23T17:26:26.054Z,61854.13
2022-10-23T17:29:28.592Z,61854.13
2022-10-23T17:32:32.354Z,61854.13
2022-10-23T17:35:34.812Z,61854.13
2022-10-23T17:38:37.654Z,61854.13
2022-10-23T17:41:40.205Z,61854.13
2022-10-23T17:44:42.653Z,61854.13
2022-10-23T17:47:46.417Z,61854.13
2022-10-23T17:50:48.859Z,61854.13
2022-10-23T17:53:53.968Z,61854.13
2022-10-23T17:56:56.488Z,61854.13
2022-10-23T17:59:58.908Z,61854.13
2022-10-23T18:03:02.673Z,61854.13
2022-10-23T18:06:08.840Z,61854.13
2022-10-23T18:09:11.932Z,61854.13
2022-10-23T18:12:14.459Z,61854.13
2022-10-23T18:15:17.164Z,61854.13
2022-10-23T18:18:20.896Z,61854.13
2022-10-23T18:21:25.126Z,61854.13
2022-10-23T18:24:27.578Z,61854.13
2022-10-23T18:27:29.994Z,61854.13
2022-10-23T18:30:32.461Z,61854.13
2022-10-23T18:33:36.289Z,61854.13
2022-10-23T18:36:40.683Z,61854.13
2022-10-23T18:39:43.133Z,61854.13
2022-10-23T18:42:45.738Z,61854.13
2022-10-23T18:45:48.630Z,61854.13
2022-10-23T18:48:52.445Z,61854.13
2022-10-23T18:51:54.926Z,61854.13
2022-10-23T18:54:57.354Z,61854.13
2022-10-23T18:57:59.822Z,61854.13
2022-10-23T19:01:02.410Z,61854.13
2022-10-23T19:04:06.544Z,61854.13
2022-10-23T19:07:08.958Z,61854.13
2022-10-23T19:10:15.820Z,61854.13
2022-10-23T19:13:18.373Z,61854.13
2022-10-23T19:16:25.240Z,61854.13
2022-10-23T19:19:32.706Z,61854.13
2022-10-23T19:22:37.605Z,61854.13
2022-10-23T19:25:40.052Z,61854.13
2022-10-23T19:28:46.769Z,61854.13
2022-10-23T19:31:50.350Z,61854.13
2022-10-23T19:34:54.099Z,61854.13
2022-10-23T19:37:56.511Z,61854.13
2022-10-23T19:40:58.954Z,61854.13
2022-10-23T19:44:01.371Z,61854.13
2022-10-23T19:47:04.229Z,61854.13
2022-10-23T19:50:09.765Z,61854.13
2022-10-23T19:53:12.214Z,61854.13
2022-10-23T19:56:15.105Z,61854.13
2022-10-23T19:59:18.259Z,61854.13
2022-10-23T20:02:21.321Z,61854.13
2022-10-23T20:05:25.206Z,61854.13
2022-10-23T20:08:31.293Z,61854.13
2022-10-23T20:11:38.549Z,61854.13
2022-10-23T20:14:40.990Z,61854.13
2022-10-23T20:17:43.408Z,61854.13
2022-10-23T20:20:47.181Z,61854.13
2022-10-23T20:23:50.085Z,61854.13
2022-10-23T20:26:54.480Z,61854.13
2022-10-23T20:29:56.906Z,61854.13
2022-10-23T20:32:59.377Z,61854.13
2022-10-23T20:36:04.269Z,61854.13
2022-10-23T20:39:08.866Z,61854.13
2022-10-23T20:42:11.272Z,61854.13
2022-10-23T20:45:13.695Z,61854.13
2022-10-23T20:48:16.120Z,61854.13
2022-10-23T20:51:21.373Z,61854.13
2022-10-23T20:54:24.944Z,61854.13
2022-10-23T20:57:27.369Z,61854.13
2022-10-23T21:00:30.171Z,61854.13
2022-10-23T21:03:32.990Z,61854.13
2022-10-23T21:06:46.283Z,61854.13
2022-10-23T21:09:59.370Z,61854.13
2022-10-23T21:13:01.780Z,61854.13
2022-10-23T21:16:13.155Z,61854.13
2022-10-23T21:19:16.727Z,61854.13
2022-10-23T21:22:20.495Z,61854.13
2022-10-23T21:25:24.302Z,61854.13
2022-10-23T21:28:26.881Z,61854.13
2022-10-23T21:31:29.459Z,61854.13
2022-10-23T21:34:32.095Z,61854.13
2022-10-23T21:37:35.905Z,61854.13
2022-10-23T21:40:38.372Z,61854.13
2022-10-23T21:43:40.908Z,61854.13
2022-10-23T21:46:44.152Z,61854.13
2022-10-23T21:49:46.759Z,61854.13
2022-10-23T21:52:52.873Z,61854.13
2022-10-23T21:55:57.098Z,61854.13
2022-10-23T21:59:01.428Z,61854.13
2022-10-23T22:02:04.259Z,61854.13
2022-10-23T22:05:07.129Z,61854.13
2022-10-23T22:08:10.914Z,61854.13
2022-10-23T22:11:14.129Z,61854.13
2022-10-23T22:14:16.624Z,61854.13
2022-10-23T22:17:19.073Z,61854.13
2022-10-23T22:20:21.619Z,61854.13
2022-10-23T22:23:25.428Z,61854.13
2022-10-23T22:26:30.262Z,61854.13
2022-10-23T22:29:32.801Z,61854.13
2022-10-23T22:32:36.287Z,61854.13
2022-10-23T22:35:38.821Z,61854.13
2022-10-23T22:38:43.297Z,61854.13
2022-10-23T22:41:47.438Z,61854.13
2022-10-23T22:44:49.940Z,61854.13
2022-10-23T22:47:52.395Z,61854.13
2022-10-23T22:50:54.924Z,61854.13
2022-10-23T22:53:59.735Z,61854.13
2022-10-23T22:57:02.245Z,61854.13
2022-10-23T23:00:05.581Z,61854.13
2022-10-23T23:03:08.704Z,61854.13
2022-10-23T23:06:11.532Z,61854.13
2022-10-23T23:09:18.086Z,61854.13
2022-10-23T23:12:20.825Z,61854.13
2022-10-23T23:15:23.301Z,61854.13
2022-10-23T23:18:26.363Z,61854.13
2022-10-23T23:21:30.259Z,61854.13
2022-10-23T23:24:34.234Z,61854.13
2022-10-23T23:27:36.758Z,61854.13
2022-10-23T23:30:40.071Z,61854.13
2022-10-23T23:33:43.133Z,61854.13
2022-10-23T23:36:45.777Z,61854.13
2022-10-23T23:39:49.560Z,61854.13
2022-10-23T23:42:52.171Z,61854.13
2022-10-23T23:45:54.685Z,61854.13
2022-10-23T23:48:57.333Z,61854.13
2022-10-23T23:51:59.805Z,61854.13
2022-10-23T23:55:03.664Z,61854.13
2022-10-23T23:58:06.351Z,61854.13
